Time;durP1;ratioP1;P1;durP2;ratioP2;P2;SDS_P1;SDS_P2;PMS_P1;PMS_P2;Temp;Humidity;BMP_temperature;BMP_pressure;BME280_temperature;BME280_humidity;BME280_pressure;Samples;Min_cycle;Max_cycle;Signal;HPM_P1;HPM_P2
2023/05/17 00:02:17;;;;;;;;;;;;;;;19.72;46.71;100528.08;102933;1296;63257;-83
2023/05/17 00:04:46;;;;;;;;;;;;;;;19.72;46.82;100534.14;102908;1294;63079;-82
2023/05/17 00:07:11;;;;;;;;;;;;;;;19.72;46.76;100549.13;102893;1293;62369;-82
2023/05/17 00:09:37;;;;;;;;;;;;;;;19.72;46.88;100552.89;103119;1292;62290;-83
2023/05/17 00:12:03;;;;;;;;;;;;;;;19.72;46.91;100566.30;103034;1294;62213;-82
2023/05/17 00:14:28;;;;;;;;;;;;;;;19.72;46.77;100576.09;103311;1294;62284;-85
2023/05/17 00:17:01;;;;;;;;;;;;;;;19.72;46.73;100577.38;103601;1285;62206;-82
2023/05/17 00:19:26;;;;;;;;;;;;;;;19.71;46.89;100590.59;103547;1290;73632;-83
2023/05/17 00:21:57;;;;;;;;;;;;;;;19.71;46.74;100593.08;103535;1286;75289;-83
2023/05/17 00:24:22;;;;;;;;;;;;;;;19.72;46.89;100594.49;103584;1285;62125;-82
2023/05/17 00:26:48;;;;;;;;;;;;;;;19.72;46.71;100598.98;103593;1291;63243;-82
2023/05/17 00:29:14;;;;;;;;;;;;;;;19.71;46.73;100598.81;103577;1285;73194;-83
2023/05/17 00:31:40;;;;;;;;;;;;;;;19.71;46.81;100594.52;103540;1291;63263;-83
2023/05/17 00:34:11;;;;;;;;;;;;;;;19.71;46.83;100595.05;103488;1291;62303;-83
2023/05/17 00:36:37;;;;;;;;;;;;;;;19.71;46.76;100592.05;103471;1287;62171;-83
2023/05/17 00:39:03;;;;;;;;;;;;;;;19.71;46.67;100589.19;103513;1291;63279;-83
2023/05/17 00:41:31;;;;;;;;;;;;;;;19.71;46.82;100582.77;103518;1285;76043;-83
2023/05/17 00:44:00;;;;;;;;;;;;;;;19.71;46.66;100572.95;103592;1285;62158;-82
2023/05/17 00:46:25;;;;;;;;;;;;;;;19.71;46.51;100568.49;103607;1285;62808;-82
2023/05/17 00:48:51;;;;;;;;;;;;;;;19.70;46.63;100568.67;103501;1291;63370;-83
2023/05/17 00:51:17;;;;;;;;;;;;;;;19.70;46.76;100560.65;103477;1291;62271;-83
2023/05/17 00:53:45;;;;;;;;;;;;;;;19.70;46.75;100559.98;103565;1285;62151;-83
2023/05/17 00:56:11;;;;;;;;;;;;;;;19.70;46.63;100563.15;103582;1291;63253;-83
2023/05/17 00:58:40;;;;;;;;;;;;;;;19.70;46.65;100562.13;103552;1285;62181;-82
2023/05/17 01:01:07;;;;;;;;;;;;;;;19.70;46.66;100556.23;103133;1285;75321;-83
2023/05/17 01:03:32;;;;;;;;;;;;;;;19.69;46.75;100543.05;103520;1291;62137;-83
2023/05/17 01:05:58;;;;;;;;;;;;;;;19.70;46.78;100537.64;103550;1291;62191;-82
2023/05/17 01:08:24;;;;;;;;;;;;;;;19.70;46.67;100537.11;103599;1291;63388;-83
2023/05/17 01:11:01;;;;;;;;;;;;;;;19.70;46.58;100535.02;103552;1285;62198;-82
2023/05/17 01:13:31;;;;;;;;;;;;;;;19.70;46.73;100534.11;103557;1291;62188;-83
2023/05/17 01:16:10;;;;;;;;;;;;;;;19.70;46.72;100536.59;103550;1290;63489;-83
2023/05/17 01:18:59;;;;;;;;;;;;;;;19.69;46.77;100533.43;103521;1285;73369;-83
2023/05/17 01:21:43;;;;;;;;;;;;;;;19.69;46.76;100525.02;102945;1299;75351;-82
2023/05/17 01:24:32;;;;;;;;;;;;;;;19.69;46.71;100510.92;102778;1299;62215;-83
2023/05/17 01:26:58;;;;;;;;;;;;;;;19.69;46.75;100515.57;103504;1294;63170;-80
2023/05/17 01:29:26;;;;;;;;;;;;;;;19.70;46.73;100514.45;103580;1294;60269;-81
2023/05/17 01:31:52;;;;;;;;;;;;;;;19.70;46.67;100511.27;103533;1294;76315;-81
2023/05/17 01:34:27;;;;;;;;;;;;;;;19.70;46.54;100504.26;102787;1299;62299;-81
2023/05/17 01:36:54;;;;;;;;;;;;;;;19.70;46.71;100502.63;102971;1296;62208;-83
2023/05/17 01:39:23;;;;;;;;;;;;;;;19.71;46.78;100504.93;102906;1300;72526;-83
2023/05/17 01:41:57;;;;;;;;;;;;;;;19.71;46.67;100511.88;102790;1293;74315;-82
2023/05/17 01:44:28;;;;;;;;;;;;;;;19.71;46.73;100519.02;102893;1299;63410;-83
2023/05/17 01:46:56;;;;;;;;;;;;;;;19.71;46.68;100527.08;102951;1295;62627;-83
2023/05/17 01:49:34;;;;;;;;;;;;;;;19.71;46.74;100525.82;102928;1298;73291;-81
2023/05/17 01:52:19;;;;;;;;;;;;;;;19.71;46.64;100523.52;102893;1295;76751;-82
2023/05/17 01:54:46;;;;;;;;;;;;;;;19.70;46.72;100517.10;102863;1307;62150;-83
2023/05/17 01:57:12;;;;;;;;;;;;;;;19.70;46.70;100519.27;102936;1299;62206;-82
2023/05/17 01:59:40;;;;;;;;;;;;;;;19.70;46.90;100523.89;103369;1285;62137;-82
2023/05/17 02:02:07;;;;;;;;;;;;;;;19.70;46.77;100528.76;103539;1286;76142;-84
2023/05/17 02:04:34;;;;;;;;;;;;;;;19.70;46.70;100535.90;103516;1285;62291;-82
2023/05/17 02:07:00;;;;;;;;;;;;;;;19.69;46.69;100537.34;103541;1291;62181;-83
2023/05/17 02:09:28;;;;;;;;;;;;;;;19.69;46.63;100532.89;103586;1291;62287;-83
2023/05/17 02:11:57;;;;;;;;;;;;;;;19.69;46.69;100525.39;103631;1287;76454;-82
2023/05/17 02:14:23;;;;;;;;;;;;;;;19.69;46.71;100518.98;103546;1285;62619;-82
2023/05/17 02:16:51;;;;;;;;;;;;;;;19.69;46.70;100510.07;103514;1291;62134;-83
2023/05/17 02:19:16;;;;;;;;;;;;;;;19.68;46.59;100510.09;103520;1285;71786;-83
2023/05/17 02:21:42;;;;;;;;;;;;;;;19.68;46.57;100514.41;103513;1285;62663;-83
2023/05/17 02:24:08;;;;;;;;;;;;;;;19.68;46.60;100518.88;103494;1291;62139;-81
2023/05/17 02:26:47;;;;;;;;;;;;;;;;;;;;;
2023/05/17 02:29:13;;;;;;;;;;;;;;;19.68;46.79;100541.38;103626;1290;73711;-83
2023/05/17 02:31:45;;;;;;;;;;;;;;;19.68;46.63;100541.95;103607;1287;75230;-83
2023/05/17 02:34:11;;;;;;;;;;;;;;;19.68;46.60;100540.86;103479;1290;62135;-82
2023/05/17 02:36:37;;;;;;;;;;;;;;;19.68;46.56;100538.02;103596;1291;62327;-83
2023/05/17 02:39:05;;;;;;;;;;;;;;;19.67;46.55;100533.39;103628;1291;62155;-83
2023/05/17 02:41:33;;;;;;;;;;;;;;;19.67;46.63;100530.54;103603;1287;62091;-83
2023/05/17 02:43:59;;;;;;;;;;;;;;;19.67;46.59;100531.26;103545;1291;62195;-83
2023/05/17 02:46:25;;;;;;;;;;;;;;;19.67;46.45;100533.21;103534;1286;62235;-83
2023/05/17 02:48:50;;;;;;;;;;;;;;;19.67;46.66;100532.52;103607;1286;62246;-82
2023/05/17 02:51:16;;;;;;;;;;;;;;;19.67;46.65;100531.83;103449;1292;62097;-84
2023/05/17 02:53:47;;;;;;;;;;;;;;;19.67;46.57;100522.52;103560;1291;62348;-83
2023/05/17 02:56:13;;;;;;;;;;;;;;;19.67;46.66;100517.71;103506;1290;62268;-82
2023/05/17 02:58:43;;;;;;;;;;;;;;;19.67;46.63;100514.66;103579;1291;62117;-83
2023/05/17 03:01:13;;;;;;;;;;;;;;;19.67;46.50;100508.25;103596;1298;73494;-82
2023/05/17 03:03:38;;;;;;;;;;;;;;;19.67;46.48;100509.50;103098;1293;74392;-82
2023/05/17 03:06:06;;;;;;;;;;;;;;;19.67;46.53;100513.95;103504;1291;62102;-83
2023/05/17 03:08:32;;;;;;;;;;;;;;;19.67;46.54;100509.68;103584;1287;62234;-82
2023/05/17 03:11:03;;;;;;;;;;;;;;;19.67;46.62;100500.59;103540;1286;62201;-83
2023/05/17 03:13:29;;;;;;;;;;;;;;;19.67;46.51;100502.90;103602;1292;75380;-82
2023/05/17 03:15:54;;;;;;;;;;;;;;;19.67;46.55;100515.02;103734;1286;62223;-83
2023/05/17 03:18:20;;;;;;;;;;;;;;;19.67;46.67;100510.91;103837;1289;69397;-80
2023/05/17 03:20:46;;;;;;;;;;;;;;;19.67;46.52;100521.79;103536;1286;62260;-83
2023/05/17 03:23:12;;;;;;;;;;;;;;;19.67;46.72;100522.30;103625;1287;62518;-82
2023/05/17 03:25:37;;;;;;;;;;;;;;;19.67;46.64;100523.74;103527;1291;62287;-83
2023/05/17 03:28:09;;;;;;;;;;;;;;;19.68;46.66;100523.20;103530;1287;62202;-82
2023/05/17 03:30:34;;;;;;;;;;;;;;;19.68;46.57;100515.36;103567;1292;62158;-82
2023/05/17 03:33:00;;;;;;;;;;;;;;;19.68;46.63;100508.73;103516;1292;62751;-83
2023/05/17 03:35:29;;;;;;;;;;;;;;;19.68;46.65;100509.45;103616;1286;75129;-83
2023/05/17 03:37:54;;;;;;;;;;;;;;;19.68;46.54;100509.24;103892;1291;62152;-82
2023/05/17 03:40:22;;;;;;;;;;;;;;;19.68;46.60;100496.94;103836;1287;62117;-82
2023/05/17 03:42:48;;;;;;;;;;;;;;;19.67;46.66;100489.29;103697;1286;62196;-83
2023/05/17 03:45:16;;;;;;;;;;;;;;;19.68;46.69;100476.56;103676;1298;62270;-83
2023/05/17 03:47:42;;;;;;;;;;;;;;;19.68;46.69;100470.13;103579;1286;62096;-82
2023/05/17 03:50:08;;;;;;;;;;;;;;;19.68;46.73;100471.00;103578;1292;62215;-82
2023/05/17 03:52:36;;;;;;;;;;;;;;;19.68;46.67;100475.48;103480;1290;62243;-83
2023/05/17 03:55:02;;;;;;;;;;;;;;;19.69;46.68;100490.57;103436;1286;75469;-83
2023/05/17 03:57:30;;;;;;;;;;;;;;;19.69;46.54;100493.63;103555;1291;62200;-82
2023/05/17 03:59:56;;;;;;;;;;;;;;;19.69;46.64;100486.48;103695;1291;62745;-82
2023/05/17 04:02:22;;;;;;;;;;;;;;;19.69;46.65;100485.05;103718;1286;63374;-83
2023/05/17 04:04:49;;;;;;;;;;;;;;;19.69;46.48;100490.42;103435;1291;63280;-83
2023/05/17 04:07:16;;;;;;;;;;;;;;;19.69;46.50;100500.23;103470;1291;62316;-84
2023/05/17 04:09:43;;;;;;;;;;;;;;;19.68;46.60;100504.93;103511;1296;62747;-83
2023/05/17 04:12:11;;;;;;;;;;;;;;;19.68;46.61;100510.50;103510;1291;72474;-83
2023/05/17 04:14:37;;;;;;;;;;;;;;;19.67;46.52;100520.70;103450;1292;75459;-82
2023/05/17 04:17:03;;;;;;;;;;;;;;;19.66;46.52;100522.77;103379;1291;62740;-84
2023/05/17 04:19:29;;;;;;;;;;;;;;;19.65;46.58;100528.17;103619;1287;62183;-83
2023/05/17 04:22:22;;;;;;;;;;;;;;;19.63;46.55;100527.45;103543;1292;62254;-82
2023/05/17 04:24:48;;;;;;;;;;;;;;;19.42;46.31;100531.90;103248;1296;75431;-83
2023/05/17 04:27:39;;;;;;;;;;;;;;;19.36;46.57;100540.70;103638;1298;62298;-83
2023/05/17 04:30:05;;;;;;;;;;;;;;;19.36;46.59;100544.11;102800;1300;63275;-81
2023/05/17 04:32:32;;;;;;;;;;;;;;;19.34;46.68;100540.48;102921;1300;62237;-82
2023/05/17 04:34:59;;;;;;;;;;;;;;;19.30;46.63;100546.70;102775;1302;75091;-83
2023/05/17 04:37:25;;;;;;;;;;;;;;;19.26;46.73;100540.13;102653;1297;62141;-82
2023/05/17 04:39:51;;;;;;;;;;;;;;;19.17;46.36;100543.42;102943;1302;62233;-84
2023/05/17 04:42:17;;;;;;;;;;;;;;;18.92;46.60;100538.05;103334;1298;63758;-82
2023/05/17 04:44:43;;;;;;;;;;;;;;;18.76;46.66;100538.06;103516;1300;62780;-83
2023/05/17 04:47:11;;;;;;;;;;;;;;;18.64;46.80;100552.23;103406;1299;62234;-83
2023/05/17 04:49:37;;;;;;;;;;;;;;;18.58;47.07;100569.19;103409;1299;62207;-83
2023/05/17 04:52:03;;;;;;;;;;;;;;;18.54;46.96;100580.26;103618;1299;62127;-82
2023/05/17 04:54:28;;;;;;;;;;;;;;;18.48;47.13;100571.78;103508;1302;62439;-82
2023/05/17 04:56:53;;;;;;;;;;;;;;;18.40;47.14;100572.45;104107;1303;62117;-83
2023/05/17 04:59:19;;;;;;;;;;;;;;;18.31;47.17;100566.21;104250;1300;60698;-82
2023/05/17 05:01:46;;;;;;;;;;;;;;;18.23;47.34;100564.73;104609;1295;60798;-83
2023/05/17 05:04:12;;;;;;;;;;;;;;;18.13;47.46;100571.31;104699;1298;72573;-83
2023/05/17 05:06:38;;;;;;;;;;;;;;;18.09;47.90;100572.26;104740;1288;63301;-83
2023/05/17 05:09:04;;;;;;;;;;;;;;;18.06;47.87;100571.86;105054;1293;62014;-83
2023/05/17 05:11:30;;;;;;;;;;;;;;;18.10;47.96;100566.83;104887;1289;60433;-83
2023/05/17 05:13:56;;;;;;;;;;;;;;;18.08;48.08;100568.19;105163;1286;61775;-83
2023/05/17 05:16:22;;;;;;;;;;;;;;;18.07;48.08;100568.23;105235;1286;60240;-83
2023/05/17 05:18:48;;;;;;;;;;;;;;;18.10;48.20;100564.35;104893;1286;62130;-83
2023/05/17 05:21:13;;;;;;;;;;;;;;;18.07;48.36;100567.89;105288;1288;62264;-82
2023/05/17 05:23:39;;;;;;;;;;;;;;;18.08;48.40;100579.05;105274;1291;62269;-83
2023/05/17 05:26:05;;;;;;;;;;;;;;;18.04;48.52;100573.77;105257;1287;60751;-83
2023/05/17 05:28:31;;;;;;;;;;;;;;;17.98;48.60;100580.02;104919;1289;62088;-83
2023/05/17 05:31:00;;;;;;;;;;;;;;;17.87;48.99;100590.67;104784;1286;62174;-83
2023/05/17 05:33:26;;;;;;;;;;;;;;;17.76;49.34;100585.95;104933;1289;64317;-83
2023/05/17 05:35:52;;;;;;;;;;;;;;;17.75;49.57;100581.02;104875;1289;71611;-83
2023/05/17 05:38:17;;;;;;;;;;;;;;;17.83;49.65;100573.10;105020;1291;62190;-83
2023/05/17 05:40:44;;;;;;;;;;;;;;;17.87;49.74;100561.81;105017;1288;60430;-83
2023/05/17 05:43:10;;;;;;;;;;;;;;;17.89;49.78;100560.77;104802;1286;62068;-82
2023/05/17 05:45:36;;;;;;;;;;;;;;;17.92;49.99;100573.23;104817;1290;62282;-83
2023/05/17 05:48:04;;;;;;;;;;;;;;;17.89;49.93;100581.04;105020;1286;62310;-82
2023/05/17 05:50:29;;;;;;;;;;;;;;;17.90;50.14;100585.48;105099;1285;62092;-82
2023/05/17 05:52:56;;;;;;;;;;;;;;;17.97;50.29;100575.98;105100;1286;65391;-83
2023/05/17 05:55:22;;;;;;;;;;;;;;;18.06;50.32;100572.24;105207;1286;62206;-83
2023/05/17 05:57:48;;;;;;;;;;;;;;;18.11;50.27;100582.41;105206;1288;63636;-83
2023/05/17 06:00:16;;;;;;;;;;;;;;;18.13;50.46;100568.41;105170;1286;62104;-83
2023/05/17 06:02:42;;;;;;;;;;;;;;;18.14;50.53;100560.35;105180;1287;61318;-82
2023/05/17 06:05:08;;;;;;;;;;;;;;;18.14;50.80;100551.95;104887;1291;62515;-82
2023/05/17 06:07:34;;;;;;;;;;;;;;;18.17;50.75;100564.77;105162;1287;62204;-83
2023/05/17 06:10:00;;;;;;;;;;;;;;;18.24;50.75;100580.18;105085;1286;62627;-82
2023/05/17 06:12:26;;;;;;;;;;;;;;;18.34;50.56;100584.23;104914;1287;62153;-82
2023/05/17 06:14:51;;;;;;;;;;;;;;;18.41;50.53;100590.67;104928;1286;62000;-81
2023/05/17 06:17:17;;;;;;;;;;;;;;;18.51;50.48;100595.47;105012;1287;62193;-82
2023/05/17 06:19:43;;;;;;;;;;;;;;;18.58;50.33;100591.94;104858;1286;63472;-80
2023/05/17 06:22:08;;;;;;;;;;;;;;;18.66;50.36;100598.08;105296;1286;62114;-81
2023/05/17 06:24:33;;;;;;;;;;;;;;;18.71;50.30;100588.80;105146;1286;62083;-81
2023/05/17 06:26:59;;;;;;;;;;;;;;;18.77;50.15;100592.35;105165;1285;60504;-80
2023/05/17 06:29:25;;;;;;;;;;;;;;;18.81;50.13;100591.17;105367;1289;62176;-81
2023/05/17 06:31:50;;;;;;;;;;;;;;;18.85;50.10;100593.44;105145;1290;62147;-81
2023/05/17 06:34:16;;;;;;;;;;;;;;;18.88;50.05;100591.27;105148;1286;60792;-81
2023/05/17 06:36:42;;;;;;;;;;;;;;;18.93;50.11;100596.17;104892;1285;64044;-80
2023/05/17 06:39:07;;;;;;;;;;;;;;;18.96;49.98;100599.95;104901;1287;62129;-81
2023/05/17 06:41:33;;;;;;;;;;;;;;;18.96;50.15;100602.91;105107;1285;62208;-82
2023/05/17 06:44:00;;;;;;;;;;;;;;;18.96;50.13;100600.09;105100;1286;62198;-81
2023/05/17 06:46:25;;;;;;;;;;;;;;;18.97;50.16;100600.03;104906;1285;62118;-81
2023/05/17 06:48:51;;;;;;;;;;;;;;;19.00;50.14;100596.98;105455;1287;62107;-81
2023/05/17 06:51:16;;;;;;;;;;;;;;;19.02;49.99;100589.50;105384;1288;61999;-81
2023/05/17 06:53:42;;;;;;;;;;;;;;;18.95;49.98;100588.00;105205;1285;62099;-81
2023/05/17 06:56:07;;;;;;;;;;;;;;;18.77;50.24;100587.73;105505;1285;60691;-82
2023/05/17 06:58:34;;;;;;;;;;;;;;;18.68;50.40;100591.15;105382;1285;62139;-82
2023/05/17 07:00:59;;;;;;;;;;;;;;;18.58;50.85;100594.10;105222;1285;62075;-82
2023/05/17 07:03:25;;;;;;;;;;;;;;;18.57;50.94;100595.23;105160;1285;62037;-83
2023/05/17 07:05:50;;;;;;;;;;;;;;;18.57;51.02;100598.65;104306;1286;1541563;-83
2023/05/17 07:08:20;;;;;;;;;;;;;;;18.62;51.19;100599.23;105256;1285;77583;-84
2023/05/17 07:10:51;;;;;;;;;;;;;;;18.66;51.08;100600.54;104967;1285;62082;-83
2023/05/17 07:13:20;;;;;;;;;;;;;;;18.67;51.14;100598.90;105182;1285;61371;-83
2023/05/17 07:15:45;;;;;;;;;;;;;;;18.62;51.30;100599.70;105254;1285;62155;-83
2023/05/17 07:18:12;;;;;;;;;;;;;;;18.56;51.34;100598.69;105057;1285;62409;-83
2023/05/17 07:20:37;;;;;;;;;;;;;;;18.55;51.51;100599.98;105115;1285;62556;-84
2023/05/17 07:23:03;;;;;;;;;;;;;;;18.50;51.69;100601.05;105286;1285;62179;-83
2023/05/17 07:25:28;;;;;;;;;;;;;;;18.50;51.90;100601.41;105620;1285;60685;-82
2023/05/17 07:27:54;;;;;;;;;;;;;;;18.49;51.93;100606.09;105661;1285;72582;-83
2023/05/17 07:30:19;;;;;;;;;;;;;;;18.30;51.95;100610.29;105347;1291;62091;-82
2023/05/17 07:32:45;;;;;;;;;;;;;;;18.09;52.36;100610.70;105269;1285;62278;-82
2023/05/17 07:35:10;;;;;;;;;;;;;;;18.11;52.68;100609.17;104856;1285;62066;-82
2023/05/17 07:37:36;;;;;;;;;;;;;;;18.24;52.77;100604.98;104926;1285;61355;-82
2023/05/17 07:40:01;;;;;;;;;;;;;;;18.37;52.64;100608.10;104997;1286;62111;-81
2023/05/17 07:42:26;;;;;;;;;;;;;;;18.48;52.42;100609.73;105292;1290;62214;-82
2023/05/17 07:44:52;;;;;;;;;;;;;;;18.58;52.28;100609.05;104716;1287;62272;-81
2023/05/17 07:47:18;;;;;;;;;;;;;;;18.68;52.37;100609.52;104818;1286;61294;-81
2023/05/17 07:49:43;;;;;;;;;;;;;;;18.75;52.22;100609.97;105041;1287;62162;-81
2023/05/17 07:52:09;;;;;;;;;;;;;;;18.82;52.02;100611.13;105161;1286;73449;-81
2023/05/17 07:54:34;;;;;;;;;;;;;;;18.88;52.24;100608.77;104905;1288;62128;-81
2023/05/17 07:57:00;;;;;;;;;;;;;;;18.94;52.09;100608.61;104955;1294;62102;-81
2023/05/17 07:59:25;;;;;;;;;;;;;;;18.99;52.01;100614.00;104907;1287;62233;-81
2023/05/17 08:01:51;;;;;;;;;;;;;;;19.03;52.00;100620.14;105275;1286;60709;-81
2023/05/17 08:04:17;;;;;;;;;;;;;;;19.08;51.96;100632.48;105369;1289;61734;-83
2023/05/17 08:06:45;;;;;;;;;;;;;;;19.11;51.78;100630.48;105279;1285;76299;-83
2023/05/17 08:09:15;;;;;;;;;;;;;;;19.05;51.96;100633.58;105161;1288;62100;-82
2023/05/17 08:11:50;;;;;;;;;;;;;;;18.99;51.99;100631.61;105383;1286;61934;-82
2023/05/17 08:14:16;;;;;;;;;;;;;;;18.97;51.99;100637.30;105351;1286;72383;-81
2023/05/17 08:16:50;;;;;;;;;;;;;;;18.99;52.03;100637.52;105079;1287;61944;-82
2023/05/17 08:19:31;;;;;;;;;;;;;;;;;;;;;
2023/05/17 08:22:26;;;;;;;;;;;;;;;19.09;51.95;100635.63;105312;1287;62024;-83
2023/05/17 08:25:07;;;;;;;;;;;;;;;19.07;51.72;100641.13;104592;1292;72583;-82
2023/05/17 08:27:35;;;;;;;;;;;;;;;19.02;51.74;100643.38;104742;1294;62161;-82
2023/05/17 08:30:01;;;;;;;;;;;;;;;18.96;51.92;100644.84;104612;1292;60628;-82
2023/05/17 08:32:34;;;;;;;;;;;;;;;18.94;51.90;100649.42;104587;1292;62113;-82
2023/05/17 08:35:20;;;;;;;;;;;;;;;18.94;51.89;100652.11;104422;1293;74133;-82
2023/05/17 08:38:00;;;;;;;;;;;;;;;18.95;51.90;100655.08;104421;1291;73958;-83
2023/05/17 08:40:38;;;;;;;;;;;;;;;;;;;;;
2023/05/17 08:43:32;;;;;;;;;;;;;;;18.98;51.85;100652.92;104422;1297;62294;-82
2023/05/17 08:45:58;;;;;;;;;;;;;;;19.01;51.92;100656.46;104292;1294;61220;-82
2023/05/17 08:48:26;;;;;;;;;;;;;;;19.04;51.94;100652.16;104601;1294;75347;-82
2023/05/17 08:50:58;;;;;;;;;;;;;;;19.08;51.78;100650.11;104694;1294;60850;-82
2023/05/17 08:53:48;;;;;;;;;;;;;;;19.12;51.76;100645.58;104663;1294;60201;-82
2023/05/17 08:56:20;;;;;;;;;;;;;;;19.16;51.80;100644.29;104545;1294;73813;-83
2023/05/17 08:58:50;;;;;;;;;;;;;;;19.15;51.71;100642.58;104725;1295;74628;-83
2023/05/17 09:01:42;;;;;;;;;;;;;;;19.04;51.61;100642.70;104891;1291;61772;-84
2023/05/17 09:04:08;;;;;;;;;;;;;;;19.06;51.87;100641.18;105171;1290;62093;-82
2023/05/17 09:06:34;;;;;;;;;;;;;;;19.02;52.00;100635.92;105281;1289;61523;-82
2023/05/17 09:09:00;;;;;;;;;;;;;;;18.97;51.99;100637.46;105280;1289;62171;-82
2023/05/17 09:11:26;;;;;;;;;;;;;;;18.92;52.13;100631.70;105134;1290;62342;-82
2023/05/17 09:13:52;;;;;;;;;;;;;;;18.95;52.33;100634.05;105228;1290;62463;-82
2023/05/17 09:16:22;;;;;;;;;;;;;;;19.00;52.46;100633.52;105164;1289;60619;-82
2023/05/17 09:18:55;;;;;;;;;;;;;;;19.06;52.52;100634.91;105179;1289;72514;-83
2023/05/17 09:21:39;;;;;;;;;;;;;;;19.15;52.69;100638.77;105384;1287;75309;-82
2023/05/17 09:24:05;;;;;;;;;;;;;;;19.27;52.97;100638.73;105468;1285;60314;-83
2023/05/17 09:27:00;;;;;;;;;;;;;;;19.39;53.03;100638.83;105320;1287;60449;-84
2023/05/17 09:29:38;;;;;;;;;;;;;;;19.49;53.13;100639.27;104963;1294;73472;-83
2023/05/17 09:32:10;;;;;;;;;;;;;;;19.57;53.01;100643.35;104840;1293;74910;-84
2023/05/17 09:34:40;;;;;;;;;;;;;;;19.61;52.81;100641.11;104848;1293;60962;-83
2023/05/17 09:37:11;;;;;;;;;;;;;;;19.61;52.67;100634.69;104639;1294;62339;-85
2023/05/17 09:39:36;;;;;;;;;;;;;;;19.58;52.59;100635.21;104575;1295;72062;-84
2023/05/17 09:42:02;;;;;;;;;;;;;;;19.48;52.56;100635.55;104789;1294;62200;-84
2023/05/17 09:44:27;;;;;;;;;;;;;;;19.42;52.78;100631.33;104636;1294;62248;-83
2023/05/17 09:47:11;;;;;;;;;;;;;;;19.40;52.68;100632.33;104629;1293;62228;-84
2023/05/17 09:49:39;;;;;;;;;;;;;;;19.41;52.71;100630.66;104554;1296;73614;-84
2023/05/17 09:52:06;;;;;;;;;;;;;;;19.42;52.58;100629.91;104589;1294;62037;-84
2023/05/17 09:54:36;;;;;;;;;;;;;;;19.38;52.64;100627.80;104745;1294;62192;-85
2023/05/17 09:57:06;;;;;;;;;;;;;;;19.35;52.64;100623.05;104563;1294;62193;-84
2023/05/17 09:59:35;;;;;;;;;;;;;;;19.31;52.61;100625.12;104318;1294;72269;-83
2023/05/17 10:02:00;;;;;;;;;;;;;;;19.28;52.66;100622.96;104384;1299;75232;-84
2023/05/17 10:04:27;;;;;;;;;;;;;;;19.24;52.72;100621.80;104702;1293;62091;-83
2023/05/17 10:06:52;;;;;;;;;;;;;;;19.20;52.89;100621.52;105175;1286;62144;-83
2023/05/17 10:09:20;;;;;;;;;;;;;;;19.17;52.86;100625.10;105435;1290;62186;-82
2023/05/17 10:11:46;;;;;;;;;;;;;;;19.12;53.02;100620.80;105259;1286;61961;-82
2023/05/17 10:14:21;;;;;;;;;;;;;;;19.13;53.14;100624.85;105030;1286;62314;-83
2023/05/17 10:16:47;;;;;;;;;;;;;;;19.15;53.22;100621.01;105104;1286;62067;-84
2023/05/17 10:19:12;;;;;;;;;;;;;;;19.15;53.15;100620.27;104984;1291;62003;-83
2023/05/17 10:21:38;;;;;;;;;;;;;;;19.16;53.30;100618.73;105056;1287;62268;-83
2023/05/17 10:24:04;;;;;;;;;;;;;;;19.18;53.32;100617.75;105066;1288;62218;-82
2023/05/17 10:26:29;;;;;;;;;;;;;;;19.18;53.32;100616.65;104994;1291;62026;-83
2023/05/17 10:28:59;;;;;;;;;;;;;;;19.18;53.30;100615.77;104883;1288;62115;-82
2023/05/17 10:31:32;;;;;;;;;;;;;;;19.19;53.41;100618.52;104868;1286;72288;-83
2023/05/17 10:34:00;;;;;;;;;;;;;;;19.21;53.39;100618.94;104979;1288;62213;-83
2023/05/17 10:36:26;;;;;;;;;;;;;;;19.24;53.27;100616.81;105091;1285;62134;-83
2023/05/17 10:38:51;;;;;;;;;;;;;;;19.24;53.34;100614.31;104978;1284;62279;-83
2023/05/17 10:41:17;;;;;;;;;;;;;;;19.24;53.39;100610.54;105214;1285;62785;-80
2023/05/17 10:43:43;;;;;;;;;;;;;;;19.24;53.35;100611.95;104997;1284;61758;-82
2023/05/17 10:46:14;;;;;;;;;;;;;;;19.24;53.64;100609.30;104956;1284;62194;-82
2023/05/17 10:48:40;;;;;;;;;;;;;;;19.24;53.52;100605.02;105511;1285;61180;-83
2023/05/17 10:51:09;;;;;;;;;;;;;;;19.24;53.38;100605.02;104945;1285;62201;-83
2023/05/17 10:53:56;;;;;;;;;;;;;;;19.25;53.52;100597.29;104913;1285;72580;-83
2023/05/17 10:56:23;;;;;;;;;;;;;;;19.26;53.75;100595.39;104982;1285;76190;-83
2023/05/17 10:59:21;;;;;;;;;;;;;;;;;;;;;
2023/05/17 11:02:05;;;;;;;;;;;;;;;19.25;53.67;100597.63;104935;1291;60342;-83
2023/05/17 11:04:33;;;;;;;;;;;;;;;19.21;53.82;100594.70;105272;1292;73651;-83
2023/05/17 11:07:11;;;;;;;;;;;;;;;19.21;54.02;100591.98;105248;1291;74887;-83
2023/05/17 11:09:38;;;;;;;;;;;;;;;19.22;53.94;100588.91;105187;1291;59939;-84
2023/05/17 11:12:07;;;;;;;;;;;;;;;19.23;54.06;100590.23;105001;1292;62559;-83
2023/05/17 11:14:45;;;;;;;;;;;;;;;19.23;54.31;100590.81;104800;1293;72441;-83
2023/05/17 11:17:13;;;;;;;;;;;;;;;19.22;54.22;100585.71;104653;1291;76459;-84
2023/05/17 11:20:06;;;;;;;;;;;;;;;19.21;54.13;100581.63;104461;1291;61632;-83
2023/05/17 11:22:38;;;;;;;;;;;;;;;19.21;54.29;100577.02;105185;1294;62065;-83
2023/05/17 11:25:05;;;;;;;;;;;;;;;19.25;54.31;100579.11;104569;1291;72278;-83
2023/05/17 11:27:34;;;;;;;;;;;;;;;19.31;54.17;100581.55;104088;1291;62313;-83
2023/05/17 11:30:08;;;;;;;;;;;;;;;19.36;54.28;100571.40;104087;1291;62192;-83
2023/05/17 11:32:34;;;;;;;;;;;;;;;19.42;54.41;100566.69;104330;1292;62214;-83
2023/05/17 11:35:00;;;;;;;;;;;;;;;19.50;54.53;100565.30;104424;1295;63536;-83
2023/05/17 11:37:27;;;;;;;;;;;;;;;19.56;54.60;100560.56;104164;1293;60193;-83
2023/05/17 11:40:06;;;;;;;;;;;;;;;19.62;54.92;100559.29;104663;1285;62252;-83
2023/05/17 11:42:32;;;;;;;;;;;;;;;19.67;54.99;100550.92;104780;1285;62210;-81
2023/05/17 11:44:59;;;;;;;;;;;;;;;19.74;54.90;100553.11;104825;1288;62079;-82
2023/05/17 11:47:25;;;;;;;;;;;;;;;19.76;54.92;100549.91;104871;1284;75570;-83
2023/05/17 11:49:51;;;;;;;;;;;;;;;19.78;54.59;100548.36;104725;1285;62545;-83
2023/05/17 11:52:17;;;;;;;;;;;;;;;19.79;54.71;100542.04;104765;1285;62246;-82
2023/05/17 11:54:42;;;;;;;;;;;;;;;19.77;54.70;100538.77;105506;1285;62280;-83
2023/05/17 11:57:08;;;;;;;;;;;;;;;19.76;54.57;100533.13;105851;1284;62122;-83
2023/05/17 11:59:40;;;;;;;;;;;;;;;19.78;54.71;100531.21;105621;1285;62228;-82
2023/05/17 12:02:05;;;;;;;;;;;;;;;19.79;54.78;100531.52;105253;1284;60690;-82
2023/05/17 12:04:33;;;;;;;;;;;;;;;19.77;54.89;100530.92;105678;1285;60575;-82
2023/05/17 12:07:00;;;;;;;;;;;;;;;19.73;54.77;100527.82;105631;1284;73221;-82
2023/05/17 12:09:26;;;;;;;;;;;;;;;19.71;54.85;100526.34;106662;1284;75136;-82
2023/05/17 12:11:52;;;;;;;;;;;;;;;19.70;54.71;100512.98;106770;1284;59860;-82
2023/05/17 12:14:19;;;;;;;;;;;;;;;19.69;54.67;100503.45;105511;1285;62069;-82
2023/05/17 12:16:46;;;;;;;;;;;;;;;19.69;54.81;100498.61;104792;1285;62059;-82
2023/05/17 12:19:21;;;;;;;;;;;;;;;19.69;54.64;100500.26;104432;1285;60336;-81
2023/05/17 12:21:47;;;;;;;;;;;;;;;19.69;54.63;100497.77;104684;1284;64044;-81
2023/05/17 12:24:13;;;;;;;;;;;;;;;19.68;54.77;100494.27;104809;1283;62043;-81
2023/05/17 12:26:43;;;;;;;;;;;;;;;19.68;54.66;100494.80;104710;1285;62814;-81
2023/05/17 12:29:10;;;;;;;;;;;;;;;19.67;54.58;100489.48;104305;1285;75094;-82
2023/05/17 12:31:46;;;;;;;;;;;;;;;19.67;54.58;100486.10;104299;1284;62114;-82
2023/05/17 12:34:13;;;;;;;;;;;;;;;19.65;54.70;100479.60;103896;1285;62110;-82
2023/05/17 12:36:39;;;;;;;;;;;;;;;19.64;54.63;100474.92;103881;1285;62198;-83
2023/05/17 12:39:08;;;;;;;;;;;;;;;19.64;54.78;100478.83;103832;1286;62166;-83